Time;durP1;ratioP1;P1;durP2;ratioP2;P2;SDS_P1;SDS_P2;PMS_P1;PMS_P2;Temp;Humidity;BMP_temperature;BMP_pressure;BME280_temperature;BME280_humidity;BME280_pressure;Samples;Min_cycle;Max_cycle;Signal;HPM_P1;HPM_P2
2023/04/11 00:01:35;;;;;;;8.50;3.00;;;;;;;9.40;100.00;100275.41;5050415;28;20057;-79
2023/04/11 00:04:02;;;;;;;7.88;3.03;;;;;;;9.48;99.48;100257.97;5055889;28;20561;-79
2023/04/11 00:06:30;;;;;;;5.32;2.33;;;;;;;9.49;99.02;100272.66;5063362;28;20056;-79
2023/04/11 00:08:56;;;;;;;6.03;2.92;;;;;;;9.51;98.71;100283.75;5056933;28;20071;-79
2023/04/11 00:11:23;;;;;;;8.07;2.92;;;;;;;9.53;98.35;100288.84;5052629;28;20077;-79
2023/04/11 00:13:56;;;;;;;8.98;3.38;;;;;;;9.55;98.01;100282.47;5054575;28;20060;-79
2023/04/11 00:16:23;;;;;;;13.00;3.38;;;;;;;9.63;97.53;100282.50;5054250;28;20056;-79
2023/04/11 00:18:51;;;;;;;8.05;3.00;;;;;;;9.64;97.19;100272.88;5056458;28;20072;-79
2023/04/11 00:21:18;;;;;;;7.50;2.85;;;;;;;9.64;96.96;100268.47;5059368;28;20077;-79
2023/04/11 00:23:45;;;;;;;8.55;3.60;;;;;;;9.66;96.86;100260.47;5063002;28;20092;-80
2023/04/11 00:26:11;;;;;;;10.75;3.70;;;;;;;9.71;96.48;100262.63;5062224;28;20110;-79
2023/04/11 00:28:38;;;;;;;10.57;3.30;;;;;;;9.75;96.67;100261.31;5055073;28;20052;-79
2023/04/11 00:31:07;;;;;;;11.07;3.60;;;;;;;9.72;96.67;100251.19;5060034;28;20049;-79
2023/04/11 00:33:33;;;;;;;5.68;3.30;;;;;;;9.65;96.60;100267.50;5061222;28;20104;-78
2023/04/11 00:36:00;;;;;;;12.70;3.03;;;;;;;9.69;96.45;100273.22;5047160;28;20097;-79
2023/04/11 00:38:26;;;;;;;8.20;3.75;;;;;;;9.76;96.02;100273.41;5060741;28;20135;-80
2023/04/11 00:40:53;;;;;;;11.07;3.25;;;;;;;9.78;96.08;100261.81;5061664;28;20162;-81
2023/04/11 00:43:20;;;;;;;11.65;3.78;;;;;;;9.79;95.80;100273.09;5061079;28;20073;-80
2023/04/11 00:45:51;;;;;;;12.73;3.70;;;;;;;9.77;96.03;100283.69;5062331;28;20218;-80
2023/04/11 00:48:19;;;;;;;10.73;3.72;;;;;;;9.76;96.25;100273.41;5060994;28;20049;-81
2023/04/11 00:50:46;;;;;;;11.27;3.58;;;;;;;9.71;96.16;100279.09;5061768;28;20131;-79
2023/04/11 00:53:13;;;;;;;17.42;4.05;;;;;;;9.69;95.84;100275.00;5062498;28;20087;-80
2023/04/11 00:55:40;;;;;;;9.95;3.88;;;;;;;9.71;96.00;100273.06;5061846;28;20179;-80
2023/04/11 00:58:08;;;;;;;11.98;4.20;;;;;;;9.68;95.85;100265.53;5062609;28;20104;-80
2023/04/11 01:00:35;;;;;;;12.35;3.85;;;;;;;9.65;95.97;100262.28;5061664;28;20136;-81
2023/04/11 01:03:02;;;;;;;15.13;4.00;;;;;;;9.64;95.70;100270.25;5063330;28;20436;-80
2023/04/11 01:05:31;;;;;;;11.27;3.92;;;;;;;9.62;94.95;100265.19;5053643;28;20454;-80
2023/04/11 01:08:00;;;;;;;15.90;4.40;;;;;;;9.56;95.11;100268.44;5055025;28;20064;-79
2023/04/11 01:10:29;;;;;;;18.30;5.28;;;;;;;9.48;95.09;100254.53;5061582;28;20127;-77
2023/04/11 01:12:57;;;;;;;18.95;4.30;;;;;;;9.47;95.07;100248.50;5063489;28;20247;-79
2023/04/11 01:15:24;;;;;;;15.75;4.43;;;;;;;9.44;95.04;100254.06;5064672;28;20068;-81
2023/04/11 01:17:54;;;;;;;13.45;4.35;;;;;;;9.36;95.28;100247.97;5070400;28;20098;-81
2023/04/11 01:20:21;;;;;;;13.65;4.15;;;;;;;9.27;94.90;100239.28;5066515;28;20148;-80
2023/04/11 01:22:49;;;;;;;16.80;4.63;;;;;;;9.24;95.20;100244.81;5068360;28;20068;-80
2023/04/11 01:25:20;;;;;;;17.38;4.70;;;;;;;9.22;94.77;100244.16;5058420;28;20048;-80
2023/04/11 01:27:48;;;;;;;19.45;4.68;;;;;;;9.14;95.02;100255.38;5059241;28;20045;-80
2023/04/11 01:30:15;;;;;;;15.00;4.00;;;;;;;9.11;95.18;100262.69;5058337;28;20060;-80
2023/04/11 01:32:41;;;;;;;11.95;3.90;;;;;;;9.05;95.16;100258.91;5056045;28;20075;-80
2023/04/11 01:35:10;;;;;;;14.27;3.97;;;;;;;9.03;95.41;100265.25;5064539;28;20057;-79
2023/04/11 01:37:37;;;;;;;17.70;4.95;;;;;;;9.01;95.69;100257.59;5066339;28;20052;-79
2023/04/11 01:40:04;;;;;;;14.57;4.63;;;;;;;9.01;95.88;100261.97;5066566;28;20140;-80
2023/04/11 01:42:32;;;;;;;21.58;4.85;;;;;;;8.98;96.05;100248.28;5066930;28;20060;-80
2023/04/11 01:44:59;;;;;;;15.93;4.90;;;;;;;8.98;95.87;100250.06;5063720;28;20592;-79
2023/04/11 01:47:26;;;;;;;15.88;4.70;;;;;;;8.97;96.26;100264.13;5059996;28;20127;-79
2023/04/11 01:49:54;;;;;;;18.48;5.43;;;;;;;8.94;96.60;100260.03;5052068;28;20481;-80
2023/04/11 01:52:21;;;;;;;20.30;6.22;;;;;;;8.97;96.67;100261.50;5062590;28;20153;-80
2023/04/11 01:54:47;;;;;;;22.50;5.15;;;;;;;9.10;95.73;100271.50;5062632;28;20056;-79
2023/04/11 01:57:14;;;;;;;19.30;5.18;;;;;;;9.10;95.66;100276.72;5060333;28;20144;-80
2023/04/11 01:59:42;;;;;;;18.15;5.20;;;;;;;9.10;95.20;100271.50;5048971;28;20088;-78
2023/04/11 02:02:08;;;;;;;19.63;5.35;;;;;;;9.07;94.80;100274.41;5055446;28;20056;-78
2023/04/11 02:04:35;;;;;;;13.85;4.57;;;;;;;9.07;94.76;100274.41;5058985;28;20120;-80
2023/04/11 02:07:02;;;;;;;18.40;5.20;;;;;;;9.07;94.11;100277.84;5060675;28;20124;-80
2023/04/11 02:09:28;;;;;;;17.40;4.88;;;;;;;9.02;94.22;100274.06;5057959;28;20069;-79
2023/04/11 02:11:55;;;;;;;18.98;4.88;;;;;;;8.96;93.98;100284.16;5059165;28;20144;-80
2023/04/11 02:14:23;;;;;;;16.30;5.32;;;;;;;8.87;93.88;100271.22;5059478;28;20113;-79
2023/04/11 02:16:52;;;;;;;19.70;5.30;;;;;;;8.80;94.07;100268.41;5059559;28;20413;-79
2023/04/11 02:19:19;;;;;;;17.83;5.20;;;;;;;8.89;93.94;100290.16;5058548;28;20053;-80
2023/04/11 02:21:46;;;;;;;22.42;5.93;;;;;;;8.85;94.09;100294.84;5058900;28;20053;-80
2023/04/11 02:24:13;;;;;;;14.10;4.93;;;;;;;8.90;94.30;100295.22;5059490;28;20132;-80
2023/04/11 02:26:40;;;;;;;22.92;5.32;;;;;;;8.90;94.06;100292.63;5051815;28;20071;-79
2023/04/11 02:29:07;;;;;;;23.13;5.05;;;;;;;8.95;94.34;100287.75;5057371;28;20108;-80
2023/04/11 02:31:34;;;;;;;19.90;5.53;;;;;;;8.96;94.41;100292.00;5058913;28;20122;-81
2023/04/11 02:34:01;;;;;;;22.70;6.10;;;;;;;8.96;94.37;100297.22;5052904;28;20088;-78
2023/04/11 02:36:28;;;;;;;24.65;5.60;;;;;;;8.97;94.23;100288.41;5059937;28;20080;-80
2023/04/11 02:38:55;;;;;;;24.63;6.22;;;;;;;8.98;94.66;100292.63;5063809;28;20127;-81
2023/04/11 02:41:21;;;;;;;21.98;5.57;;;;;;;8.96;94.71;100299.00;5062967;28;20512;-79
2023/04/11 02:43:48;;;;;;;19.40;5.47;;;;;;;8.95;95.05;100294.75;5064150;28;20091;-79
2023/04/11 02:46:15;;;;;;;21.77;6.03;;;;;;;8.87;94.97;100302.53;5063045;28;20561;-79
2023/04/11 02:48:41;;;;;;;24.50;5.60;;;;;;;8.83;95.00;100302.03;5054072;28;20076;-80
2023/04/11 02:51:09;;;;;;;20.83;5.47;;;;;;;8.75;95.53;100309.78;5046140;28;20421;-79
2023/04/11 02:53:36;;;;;;;22.50;5.30;;;;;;;8.64;95.91;100307.41;5061494;28;20127;-79
2023/04/11 02:56:03;;;;;;;27.65;5.72;;;;;;;8.53;96.24;100310.25;5061446;28;20103;-80
2023/04/11 02:58:29;;;;;;;26.02;5.90;;;;;;;8.48;96.17;100302.09;5062278;28;20132;-81
2023/04/11 03:00:56;;;;;;;25.05;5.13;;;;;;;8.47;96.57;100316.09;5061828;28;20113;-79
2023/04/11 03:03:22;;;;;;;30.27;6.10;;;;;;;8.45;96.62;100312.81;5060187;28;20140;-78
2023/04/11 03:05:49;;;;;;;26.27;6.63;;;;;;;8.43;96.45;100315.56;5051522;28;20181;-79
2023/04/11 03:08:17;;;;;;;20.42;5.75;;;;;;;8.39;96.76;100316.00;5060328;28;20481;-79
2023/04/11 03:10:43;;;;;;;28.30;5.65;;;;;;;8.31;96.86;100319.34;5060975;28;20072;-80
2023/04/11 03:13:10;;;;;;;25.25;6.55;;;;;;;8.30;96.86;100305.47;5061379;28;20083;-80
2023/04/11 03:15:37;;;;;;;25.63;6.05;;;;;;;8.32;96.75;100316.59;5063648;28;20040;-78
2023/04/11 03:18:03;;;;;;;23.35;4.93;;;;;;;8.32;96.58;100305.31;5062475;28;20083;-80
2023/04/11 03:20:30;;;;;;;20.85;5.35;;;;;;;8.22;96.80;100312.41;5059975;28;20524;-78
2023/04/11 03:22:56;;;;;;;23.73;5.03;;;;;;;8.15;97.01;100306.94;5060800;28;20080;-78
2023/04/11 03:25:27;;;;;;;19.10;5.07;;;;;;;8.10;96.94;100293.53;5060479;28;20092;-78
2023/04/11 03:27:53;;;;;;;29.50;5.72;;;;;;;8.08;96.95;100305.91;5053216;28;20056;-79
2023/04/11 03:30:20;;;;;;;22.55;5.38;;;;;;;8.03;97.11;100310.75;5052513;28;20153;-79
2023/04/11 03:32:47;;;;;;;25.33;6.78;;;;;;;8.03;97.26;100310.75;5056867;28;20131;-80
2023/04/11 03:35:14;;;;;;;23.83;5.38;;;;;;;8.01;97.15;100315.31;5060885;28;20124;-79
2023/04/11 03:37:41;;;;;;;19.75;6.20;;;;;;;7.99;97.46;100314.63;5062006;28;20389;-81
2023/04/11 03:40:09;;;;;;;23.42;5.07;;;;;;;7.97;97.17;100313.97;5053885;28;20132;-79
2023/04/11 03:42:37;;;;;;;24.02;6.25;;;;;;;7.98;97.33;100310.38;5060363;28;20068;-81
2023/04/11 03:45:04;;;;;;;20.63;5.35;;;;;;;7.97;97.38;100325.19;5061143;28;20053;-79
2023/04/11 03:47:30;;;;;;;27.73;5.50;;;;;;;8.00;97.17;100337.13;5061249;28;20500;-80
2023/04/11 03:49:57;;;;;;;19.50;5.13;;;;;;;7.96;97.00;100328.78;5061073;28;20124;-81
2023/04/11 03:52:24;;;;;;;24.25;5.93;;;;;;;7.99;96.75;100338.09;5052730;28;20076;-80
2023/04/11 03:54:50;;;;;;;19.35;5.05;;;;;;;7.97;96.66;100345.22;5060321;28;20051;-79
2023/04/11 03:57:17;;;;;;;21.40;5.30;;;;;;;7.97;96.73;100351.25;5058160;28;20131;-80
2023/04/11 03:59:46;;;;;;;22.25;5.88;;;;;;;7.95;96.50;100342.75;5058593;28;20131;-81
2023/04/11 04:02:13;;;;;;;21.63;5.90;;;;;;;7.94;96.45;100345.50;5058208;28;20507;-78
2023/04/11 04:04:42;;;;;;;24.30;6.78;;;;;;;8.09;96.16;100351.84;5059355;28;20052;-77
2023/04/11 04:07:08;;;;;;;26.10;5.88;;;;;;;8.17;95.54;100349.31;5060230;28;20108;-78
2023/04/11 04:09:35;;;;;;;20.75;5.97;;;;;;;8.15;95.25;100346.03;5058681;28;20124;-79
2023/04/11 04:12:02;;;;;;;21.75;5.93;;;;;;;8.15;95.30;100353.03;5061266;28;20068;-81
2023/04/11 04:14:28;;;;;;;24.75;6.00;;;;;;;8.19;95.00;100357.81;5060166;28;20485;-81
2023/04/11 04:16:56;;;;;;;21.92;5.53;;;;;;;8.24;95.09;100350.38;5060711;28;20121;-79
2023/04/11 04:19:23;;;;;;;16.80;5.80;;;;;;;8.20;95.00;100345.59;5060233;28;20084;-80
2023/04/11 04:21:50;;;;;;;21.70;5.35;;;;;;;8.16;94.83;100341.66;5060485;28;20119;-80
2023/04/11 04:24:16;;;;;;;17.65;5.30;;;;;;;8.16;94.91;100349.47;5056717;28;20053;-79
2023/04/11 04:26:44;;;;;;;17.52;5.35;;;;;;;8.14;95.08;100351.41;5059600;28;20088;-78
2023/04/11 04:29:11;;;;;;;26.08;5.80;;;;;;;8.13;95.36;100347.97;5059003;28;20049;-80
2023/04/11 04:31:39;;;;;;;20.73;5.43;;;;;;;8.17;95.14;100359.75;5059679;28;20084;-80
2023/04/11 04:34:08;;;;;;;22.67;4.88;;;;;;;8.17;95.12;100362.34;5052078;28;20053;-80
2023/04/11 04:36:44;;;;;;;16.13;5.25;;;;;;;8.18;94.98;100353.56;5057977;28;20584;-82
2023/04/11 04:39:16;;;;;;;22.17;4.80;;;;;;;8.17;94.92;100359.75;5058131;28;20455;-78
2023/04/11 04:41:44;;;;;;;20.90;5.60;;;;;;;8.21;94.96;100368.91;5059573;28;20052;-79
2023/04/11 04:44:10;;;;;;;22.90;5.03;;;;;;;8.24;94.48;100371.22;5059987;28;20124;-78
2023/04/11 04:46:37;;;;;;;22.30;5.22;;;;;;;8.27;94.35;100368.34;5058838;28;20137;-79
2023/04/11 04:49:04;;;;;;;19.42;5.28;;;;;;;8.31;94.28;100363.66;5058445;28;20136;-79
2023/04/11 04:51:32;;;;;;;25.35;6.30;;;;;;;8.30;93.91;100365.44;5058213;28;20053;-79
2023/04/11 04:53:59;;;;;;;24.40;5.47;;;;;;;8.33;93.73;100377.38;5057264;28;20108;-79
2023/04/11 04:56:27;;;;;;;25.05;5.53;;;;;;;8.34;93.61;100386.03;5058586;28;20139;-80
2023/04/11 04:58:54;;;;;;;23.40;5.57;;;;;;;8.32;93.63;100386.16;5057326;28;20437;-80
2023/04/11 05:01:21;;;;;;;22.65;5.15;;;;;;;8.24;93.58;100393.88;5057473;28;20101;-79
2023/04/11 05:03:49;;;;;;;18.30;5.93;;;;;;;8.24;93.63;100394.69;5058386;28;20088;-78
2023/04/11 05:06:16;;;;;;;23.02;6.13;;;;;;;8.16;93.75;100386.78;5057131;28;20681;-78
2023/04/11 05:08:44;;;;;;;24.27;6.78;;;;;;;8.19;93.56;100399.53;5057428;28;20052;-80
2023/04/11 05:11:10;;;;;;;20.88;5.03;;;;;;;8.17;93.75;100395.41;5058213;28;20084;-79
2023/04/11 05:13:37;;;;;;;19.73;5.82;;;;;;;8.13;93.84;100397.50;5059183;28;20470;-79
2023/04/11 05:16:04;;;;;;;19.27;5.93;;;;;;;8.13;93.97;100396.69;5057912;28;20436;-80
2023/04/11 05:18:30;;;;;;;17.20;5.57;;;;;;;8.09;94.28;100401.34;5058577;28;20544;-80
2023/04/11 05:20:57;;;;;;;26.50;6.45;;;;;;;8.08;94.29;100393.69;5058451;28;20210;-79
2023/04/11 05:23:23;;;;;;;18.73;6.18;;;;;;;8.07;94.29;100397.25;5057179;28;20121;-77
2023/04/11 05:25:51;;;;;;;22.98;5.85;;;;;;;8.06;94.27;100411.25;5050792;28;20053;-79
2023/04/11 05:28:18;;;;;;;21.95;6.13;;;;;;;8.13;93.71;100414.91;5057286;28;20076;-80
2023/04/11 05:30:45;;;;;;;20.75;5.78;;;;;;;8.14;93.90;100420.00;5058137;28;20041;-79
2023/04/11 05:33:13;;;;;;;22.73;5.68;;;;;;;8.12;93.90;100434.94;5057349;28;20540;-80
2023/04/11 05:35:40;;;;;;;22.23;5.70;;;;;;;8.26;93.63;100425.81;5054039;28;20049;-81
2023/04/11 05:38:07;;;;;;;18.90;5.90;;;;;;;8.32;93.30;100439.13;5052595;28;20064;-80
2023/04/11 05:40:33;;;;;;;22.90;6.30;;;;;;;8.46;93.20;100439.63;5056843;28;20045;-81
2023/04/11 05:43:01;;;;;;;22.70;6.10;;;;;;;8.51;92.94;100437.34;5049063;28;20136;-79
2023/04/11 05:45:28;;;;;;;24.67;5.68;;;;;;;8.48;92.66;100445.50;5056709;28;20065;-79
2023/04/11 05:47:55;;;;;;;24.02;6.18;;;;;;;8.48;92.44;100448.09;5057473;28;20048;-80
2023/04/11 05:50:22;;;;;;;20.05;6.13;;;;;;;8.48;92.60;100461.16;5056877;28;20051;-78
2023/04/11 05:52:49;;;;;;;23.75;5.90;;;;;;;8.46;92.44;100461.28;5058345;28;20060;-79
2023/04/11 05:55:15;;;;;;;25.15;6.40;;;;;;;8.47;92.35;100457.72;5049507;28;20117;-80
2023/04/11 05:57:42;;;;;;;24.90;6.28;;;;;;;8.52;91.86;100462.47;5049754;28;20044;-79
2023/04/11 06:00:13;;;;;;;18.60;5.47;;;;;;;8.60;91.94;100467.78;5057462;28;20131;-80
2023/04/11 06:02:41;;;;;;;16.05;5.32;;;;;;;8.57;91.37;100468.06;5056837;28;20121;-77
2023/04/11 06:05:10;;;;;;;21.20;6.57;;;;;;;8.61;91.17;100466.81;5056332;28;20083;-78
2023/04/11 06:07:38;;;;;;;24.00;6.65;;;;;;;8.65;90.91;100483.81;5054816;28;20073;-78
2023/04/11 06:10:05;;;;;;;18.30;5.55;;;;;;;8.67;90.57;100483.66;5053774;28;20089;-79
2023/04/11 06:12:32;;;;;;;22.70;5.75;;;;;;;8.69;90.30;100481.72;5053277;28;20069;-79
2023/04/11 06:14:59;;;;;;;17.30;5.95;;;;;;;8.69;90.57;100490.38;5059459;28;20465;-78
2023/04/11 06:17:27;;;;;;;14.25;5.38;;;;;;;8.61;91.51;100490.28;5053311;28;20122;-79
2023/04/11 06:19:54;;;;;;;19.08;5.60;;;;;;;8.48;92.17;100495.06;5056105;28;20100;-78
2023/04/11 06:22:20;;;;;;;22.15;7.95;;;;;;;8.51;92.07;100499.94;5058608;28;20049;-79
2023/04/11 06:24:47;;;;;;;17.40;5.65;;;;;;;8.56;91.82;100497.72;5052158;28;20053;-79
2023/04/11 06:27:14;;;;;;;17.75;5.88;;;;;;;8.58;91.45;100501.81;5060782;28;20087;-79
2023/04/11 06:29:42;;;;;;;17.05;5.68;;;;;;;8.52;91.41;100504.19;5058413;28;20156;-80
2023/04/11 06:32:11;;;;;;;19.30;5.90;;;;;;;8.54;90.95;100510.09;5060473;28;20055;-80
2023/04/11 06:34:42;;;;;;;25.33;6.10;;;;;;;8.59;90.79;100513.06;5063938;28;20135;-80
2023/04/11 06:37:09;;;;;;;19.67;6.82;;;;;;;8.67;90.27;100521.00;5063955;28;20053;-81
2023/04/11 06:39:36;;;;;;;18.23;5.82;;;;;;;8.71;90.15;100522.34;5062610;28;20079;-80
2023/04/11 06:42:03;;;;;;;15.02;5.82;;;;;;;8.75;90.10;100528.91;5061788;28;20139;-80
2023/04/11 06:44:29;;;;;;;16.65;5.88;;;;;;;8.90;89.75;100530.06;5059983;28;20052;-81
2023/04/11 06:46:57;;;;;;;17.35;6.00;;;;;;;9.31;88.35;100541.72;5076384;28;20076;-82
2023/04/11 06:49:24;;;;;;;18.40;5.32;;;;;;;9.23;87.97;100530.38;5074437;28;20053;-82
2023/04/11 06:51:53;;;;;;;19.80;6.78;;;;;;;9.22;87.80;100536.56;5072163;28;20057;-81
2023/04/11 06:54:20;;;;;;;19.00;6.95;;;;;;;9.34;87.34;100542.38;5074073;28;20060;-79
2023/04/11 06:56:49;;;;;;;18.73;6.10;;;;;;;9.31;87.18;100535.66;5077008;28;20064;-79
2023/04/11 06:59:18;;;;;;;16.42;5.63;;;;;;;9.40;87.13;100545.22;5076683;28;20056;-78
2023/04/11 07:01:44;;;;;;;17.95;6.13;;;;;;;9.28;87.23;100547.22;5064454;28;20452;-79
2023/04/11 07:04:11;;;;;;;18.58;5.57;;;;;;;9.38;87.42;100547.16;5061720;28;20130;-80
2023/04/11 07:06:38;;;;;;;18.08;5.75;;;;;;;9.35;87.05;100551.84;5053407;28;20060;-79
2023/04/11 07:09:07;;;;;;;18.52;5.07;;;;;;;9.37;86.89;100550.75;5060639;28;20136;-79
2023/04/11 07:11:35;;;;;;;21.05;5.32;;;;;;;9.34;86.43;100547.59;5061888;28;20048;-80
2023/04/11 07:14:02;;;;;;;17.15;5.25;;;;;;;9.36;86.88;100564.75;5060918;28;20469;-80
2023/04/11 07:16:30;;;;;;;21.33;5.60;;;;;;;9.44;86.17;100551.78;5053031;28;20496;-79
2023/04/11 07:19:15;;;;;;;14.68;5.20;;;;;;;9.44;86.08;100556.19;5048544;28;20059;-80
2023/04/11 07:22:17;;;;;;;22.88;6.55;;;;;;;9.61;85.60;100558.75;5061463;28;20063;-79
2023/04/11 07:24:45;;;;;;;20.58;5.68;;;;;;;10.76;83.14;100560.25;5056394;28;20056;-80
2023/04/11 07:27:12;;;;;;;22.38;5.45;;;;;;;10.74;81.56;100555.16;5061668;28;20048;-80
2023/04/11 07:29:42;;;;;;;22.27;5.10;;;;;;;10.57;81.27;100561.31;5062144;28;20099;-79
2023/04/11 07:32:13;;;;;;;18.48;7.30;;;;;;;10.23;82.42;100575.22;5062484;28;20098;-80
2023/04/11 07:34:42;;;;;;;14.60;4.95;;;;;;;10.46;81.70;100564.19;5043978;28;20072;-80
2023/04/11 07:37:12;;;;;;;14.98;4.95;;;;;;;10.36;81.19;100560.91;5060023;28;20588;-80
2023/04/11 07:39:39;;;;;;;24.55;5.47;;;;;;;10.85;79.96;100556.69;5061184;28;20056;-80
2023/04/11 07:42:07;;;;;;;20.45;5.10;;;;;;;10.97;79.31;100574.53;5060980;28;20486;-79
2023/04/11 07:44:35;;;;;;;14.07;4.75;;;;;;;10.93;79.11;100575.81;5060073;28;20088;-80
2023/04/11 07:47:02;;;;;;;17.10;5.22;;;;;;;10.78;78.97;100580.03;5061557;28;20053;-80
2023/04/11 07:49:29;;;;;;;15.70;5.13;;;;;;;11.16;78.27;100570.81;5051814;28;20076;-80
2023/04/11 07:51:55;;;;;;;13.60;4.75;;;;;;;11.16;76.99;100580.47;5062603;28;20064;-80
2023/04/11 07:54:24;;;;;;;16.40;5.00;;;;;;;10.71;78.04;100576.41;5064793;28;20096;-80
2023/04/11 07:56:50;;;;;;;16.98;5.30;;;;;;;11.24;77.27;100568.22;5065358;28;20072;-79
2023/04/11 07:59:18;;;;;;;16.88;5.57;;;;;;;11.62;76.27;100576.41;5063983;28;20252;-79
2023/04/11 08:01:45;;;;;;;13.52;4.78;;;;;;;11.24;75.64;100581.31;5063214;28;20493;-79
2023/04/11 08:04:11;;;;;;;11.98;4.40;;;;;;;11.23;75.81;100578.84;5052496;28;20247;-81
2023/04/11 08:06:38;;;;;;;12.82;4.35;;;;;;;12.04;74.97;100589.34;5058797;28;20607;-80
2023/04/11 08:09:04;;;;;;;16.92;4.10;;;;;;;12.91;72.09;100590.19;5058742;28;20079;-80
2023/04/11 08:11:31;;;;;;;12.73;4.90;;;;;;;12.99;70.68;100581.47;5059255;28;20163;-81
2023/04/11 08:13:58;;;;;;;14.45;4.03;;;;;;;13.08;68.90;100569.91;5059106;28;20060;-81
2023/04/11 08:16:26;;;;;;;12.98;4.20;;;;;;;13.16;70.13;100596.19;5059440;28;20109;-80
2023/04/11 08:18:52;;;;;;;17.95;4.43;;;;;;;13.78;68.83;100586.31;5059267;28;20106;-79
2023/04/11 08:21:19;;;;;;;8.85;3.72;;;;;;;13.20;69.66;100595.66;5060622;28;20523;-78
2023/04/11 08:23:46;;;;;;;13.55;4.00;;;;;;;12.78;70.32;100593.38;5053770;28;20048;-80
2023/04/11 08:26:12;;;;;;;13.73;4.50;;;;;;;11.94;71.74;100600.00;5061054;28;20072;-79
2023/04/11 08:28:39;;;;;;;10.68;4.28;;;;;;;11.96;71.74;100592.78;5057684;28;20053;-77
2023/04/11 08:31:08;;;;;;;15.15;3.67;;;;;;;12.32;70.46;100587.13;5055650;28;20106;-78
2023/04/11 08:33:37;;;;;;;12.95;4.03;;;;;;;13.34;68.85;100593.25;5060255;28;20044;-81
2023/04/11 08:36:04;;;;;;;13.15;3.95;;;;;;;13.74;67.58;100592.13;5059509;28;20112;-79
2023/04/11 08:38:30;;;;;;;15.25;4.45;;;;;;;13.90;65.65;100590.16;5058640;28;20053;-81
2023/04/11 08:40:57;;;;;;;9.50;3.42;;;;;;;13.61;65.86;100596.19;5058787;28;20048;-80
2023/04/11 08:43:24;;;;;;;11.48;3.63;;;;;;;14.32;64.74;100587.94;5059044;28;20085;-81
2023/04/11 08:45:51;;;;;;;10.23;4.10;;;;;;;13.86;63.57;100582.81;5055358;28;20128;-78
2023/04/11 08:48:20;;;;;;;13.07;4.47;;;;;;;12.89;65.78;100602.69;5057160;28;20112;-79
2023/04/11 08:50:48;;;;;;;8.65;3.50;;;;;;;12.10;67.97;100598.34;5056728;28;20056;-78
2023/04/11 08:53:20;;;;;;;13.60;3.85;;;;;;;11.79;69.08;100612.16;5055453;28;20045;-78
2023/04/11 08:55:47;;;;;;;13.90;3.58;;;;;;;12.87;68.22;100613.34;5051240;28;20053;-79
2023/04/11 08:58:14;;;;;;;12.48;3.10;;;;;;;13.39;66.32;100593.56;5045162;28;20619;-80
2023/04/11 09:00:41;;;;;;;11.25;4.85;;;;;;;13.57;65.91;100600.16;5055201;28;20044;-79
2023/04/11 09:03:09;;;;;;;9.95;3.40;;;;;;;13.28;65.48;100600.03;5046777;28;20131;-78
2023/04/11 09:05:37;;;;;;;12.40;3.90;;;;;;;13.02;67.17;100604.75;5046539;28;20052;-81
2023/04/11 09:08:07;;;;;;;13.55;3.88;;;;;;;12.50;68.15;100610.56;5048358;28;20401;-77
2023/04/11 09:10:34;;;;;;;11.00;3.55;;;;;;;12.12;69.20;100607.69;5054295;28;20132;-78
2023/04/11 09:13:07;;;;;;;9.52;3.53;;;;;;;11.66;70.08;100610.97;5048316;28;20064;-78
2023/04/11 09:15:33;;;;;;;;;;;;;;;11.50;71.22;100622.25;5056207;28;20055;-78
2023/04/11 09:18:00;;;;;;;17.83;4.30;;;;;;;11.36;71.32;100604.53;5057740;28;20000;-80
2023/04/11 09:20:29;;;;;;;11.85;4.57;;;;;;;11.71;71.42;100608.69;5049328;28;20394;-77
2023/04/11 09:22:57;;;;;;;14.52;4.20;;;;;;;12.20;70.94;100618.19;5070566;28;20396;-82
2023/04/11 09:25:25;;;;;;;13.93;4.10;;;;;;;13.15;69.39;100602.41;5064133;28;20049;-80
2023/04/11 09:28:08;;;;;;;9.52;3.20;;;;;;;13.60;67.24;100594.56;5067793;28;20049;-81
2023/04/11 09:30:35;;;;;;;;;;;;;;;13.74;65.11;100581.59;5066759;28;20060;-77
2023/04/11 09:33:18;;;;;;;17.80;3.60;;;;;;;13.50;64.57;100580.81;5058187;28;19921;-78
2023/04/11 09:35:47;;;;;;;13.55;3.30;;;;;;;13.51;63.66;100574.56;5060663;28;20063;-79
2023/04/11 09:38:13;;;;;;;11.68;3.55;;;;;;;12.94;64.37;100588.03;5068381;28;20051;-78
2023/04/11 09:40:43;;;;;;;10.70;3.85;;;;;;;13.16;64.93;100599.63;5068416;28;20072;-78
2023/04/11 09:43:11;;;;;;;9.07;3.50;;;;;;;13.16;64.73;100593.56;5068629;28;20077;-78
2023/04/11 09:45:38;;;;;;;10.25;3.83;;;;;;;12.75;65.46;100603.44;5065857;28;20076;-77
2023/04/11 09:48:05;;;;;;;9.35;3.63;;;;;;;12.77;65.75;100596.16;5066302;28;20067;-77
2023/04/11 09:50:33;;;;;;;15.13;3.85;;;;;;;13.07;65.48;100589.31;5064093;28;20072;-77
2023/04/11 09:53:00;;;;;;;10.35;3.50;;;;;;;13.36;65.77;100607.03;5069642;28;20051;-78
2023/04/11 09:55:26;;;;;;;11.00;3.88;;;;;;;13.58;65.10;100585.19;5069488;28;20064;-79
2023/04/11 09:57:55;;;;;;;13.90;3.75;;;;;;;13.25;63.00;100568.84;5070020;28;20045;-79
2023/04/11 10:00:23;;;;;;;10.38;3.45;;;;;;;13.51;61.92;100598.22;5061171;28;20050;-77
2023/04/11 10:02:51;;;;;;;14.27;3.58;;;;;;;13.43;61.34;100606.16;5070217;28;20067;-78
2023/04/11 10:05:21;;;;;;;12.65;3.92;;;;;;;13.61;61.71;100598.00;5057729;28;20044;-79
2023/04/11 10:08:04;;;;;;;10.20;3.63;;;;;;;13.40;61.29;100597.81;5050835;28;20048;-78
2023/04/11 10:10:32;;;;;;;11.20;3.83;;;;;;;13.94;60.99;100606.41;5050057;28;20049;-80
2023/04/11 10:13:04;;;;;;;11.55;3.53;;;;;;;13.67;60.22;100592.03;5043336;28;20056;-78
2023/04/11 10:15:30;;;;;;;8.57;3.35;;;;;;;13.66;61.68;100605.34;5054914;28;20060;-79
2023/04/11 10:18:11;;;;;;;13.48;4.35;;;;;;;13.85;60.24;100603.03;5049190;28;20235;-79
2023/04/11 10:20:43;;;;;;;11.30;4.00;;;;;;;14.16;59.93;100605.56;5060275;28;20049;-80
2023/04/11 10:23:11;;;;;;;9.02;3.72;;;;;;;14.25;60.33;100609.72;5056313;28;20108;-78
2023/04/11 10:25:52;;;;;;;12.48;3.70;;;;;;;14.33;60.63;100605.38;5055909;28;20056;-80
2023/04/11 10:28:37;;;;;;;9.02;3.92;;;;;;;14.41;59.80;100602.66;5056563;28;20056;-80
2023/04/11 10:31:07;;;;;;;10.68;3.33;;;;;;;14.02;58.93;100601.09;5055261;28;20202;-80
2023/04/11 10:33:35;;;;;;;11.52;3.80;;;;;;;14.16;60.04;100615.28;5052995;28;20056;-80
2023/04/11 10:36:04;;;;;;;11.02;3.67;;;;;;;13.45;60.15;100611.25;5049680;28;20037;-81
2023/04/11 10:38:48;;;;;;;9.90;3.63;;;;;;;13.27;60.08;100598.38;5056419;28;20073;-80
2023/04/11 10:41:19;;;;;;;11.98;3.80;;;;;;;13.40;60.70;100622.28;5057323;28;20033;-82
2023/04/11 10:43:47;;;;;;;10.13;3.72;;;;;;;13.08;60.83;100606.69;5054905;28;20052;-79
2023/04/11 10:46:19;;;;;;;12.23;3.70;;;;;;;13.33;61.44;100615.28;5054689;28;20132;-80
2023/04/11 10:49:02;;;;;;;11.32;3.67;;;;;;;13.52;59.18;100601.69;5047796;28;20175;-80
2023/04/11 10:51:31;;;;;;;10.77;3.78;;;;;;;13.23;59.48;100607.63;5055096;28;20558;-80
2023/04/11 10:53:59;;;;;;;11.32;3.60;;;;;;;12.89;58.99;100611.38;5055368;28;20508;-83
2023/04/11 10:56:54;;;;;;;10.02;3.33;;;;;;;12.94;60.24;100629.25;5054914;28;20468;-80
2023/04/11 10:59:58;;;;;;;12.82;3.22;;;;;;;13.35;59.69;100608.84;5059892;28;20096;-79
2023/04/11 11:02:37;;;;;;;8.10;4.00;;;;;;;13.69;59.78;100615.53;5026955;28;20080;-77
2023/04/11 11:05:16;;;;;;;8.20;2.85;;;;;;;13.92;57.03;100593.44;5058352;28;20049;-80
2023/04/11 11:07:52;;;;;;;9.98;3.22;;;;;;;14.16;56.01;100600.28;5047954;28;20046;-80
2023/04/11 11:10:38;;;;;;;11.38;3.20;;;;;;;14.14;54.73;100568.09;5049184;28;20076;-79
2023/04/11 11:13:05;;;;;;;8.65;3.10;;;;;;;14.31;55.62;100581.84;5057470;28;20105;-79
2023/04/11 11:15:36;;;;;;;8.25;2.92;;;;;;;14.08;57.89;100587.22;5054873;28;20453;-79
2023/04/11 11:18:04;;;;;;;9.00;3.35;;;;;;;14.33;57.36;100586.94;5054612;28;20053;-79
2023/04/11 11:20:31;;;;;;;6.85;3.15;;;;;;;14.63;54.65;100585.16;5060961;28;20053;-79
2023/04/11 11:23:02;;;;;;;7.03;3.20;;;;;;;14.67;54.06;100586.41;5061657;28;20096;-76
2023/04/11 11:25:29;;;;;;;7.97;3.10;;;;;;;14.20;54.09;100579.66;5060424;28;20048;-80
2023/04/11 11:28:03;;;;;;;8.30;3.30;;;;;;;14.20;54.62;100583.13;5054232;28;20080;-81
2023/04/11 11:30:30;;;;;;;13.43;3.50;;;;;;;14.74;55.89;100605.75;5060233;28;20331;-80